Terminal Aerodrome Forecast
Issued by NWS

Home | Current Version | Previous Version | Text Only | Print | Product List | Glossary On
Versions: 1 2 3 4 5 6 7 8 9 10 11 12 13 14 15 16 17 18 19 20 21 22
000
FTUS41 KOKX 251700
TAFTEB
TAF
KTEB 251736Z 2518/2618 29019G27KT P6SM BKN050
     FM252100 28012G22KT P6SM SKC
     FM260000 28007KT P6SM SKC
     FM260700 27005KT P6SM SKC
     FM261400 27008KT P6SM FEW025=

USA.gov is the U.S. government's official web portal to all federal, state and local government web resources and services.